createdAt,value
2023-02-14T00:08:12.087Z,36.65
2023-02-14T00:17:41.948Z,36.30
2023-02-14T00:21:18.630Z,36.25
2023-02-14T00:24:56.699Z,35.77
2023-02-14T00:28:42.576Z,36.21
2023-02-14T00:31:51.189Z,36.06
2023-02-14T00:35:01.838Z,36.11
2023-02-14T00:38:12.117Z,36.07
2023-02-14T00:41:36.130Z,36.07
2023-02-14T00:48:43.859Z,36.30
2023-02-14T00:52:07.393Z,36.18
2023-02-14T00:55:23.441Z,36.15
2023-02-14T00:58:54.826Z,35.90
2023-02-14T01:02:32.274Z,36.21
2023-02-14T01:06:10.386Z,36.12
2023-02-14T01:09:22.394Z,36.00
2023-02-14T01:13:07.546Z,35.81
2023-02-14T01:16:29.479Z,35.56
2023-02-14T01:19:42.994Z,35.61
2023-02-14T01:23:43.691Z,35.62
2023-02-14T01:26:50.053Z,35.25
2023-02-14T01:30:01.511Z,35.09
2023-02-14T01:33:21.980Z,35.04
2023-02-14T01:36:51.063Z,34.99
2023-02-14T01:40:15.361Z,34.84
2023-02-14T01:43:18.474Z,34.67
2023-02-14T01:46:25.187Z,34.68
2023-02-14T01:49:39.420Z,34.74
2023-02-14T01:52:50.660Z,34.68
2023-02-14T01:56:27.686Z,34.78
2023-02-14T01:59:39.631Z,34.54
2023-02-14T02:03:33.913Z,34.55
2023-02-14T02:07:01.083Z,34.33
2023-02-14T02:10:10.887Z,34.14
2023-02-14T02:13:33.512Z,33.99
2023-02-14T02:17:01.351Z,33.93
2023-02-14T02:21:01.726Z,34.05
2023-02-14T02:24:29.451Z,33.83
2023-02-14T02:27:46.315Z,33.57
2023-02-14T02:30:54.889Z,33.40
2023-02-14T02:34:40.042Z,33.50
2023-02-14T02:38:03.279Z,33.24
2023-02-14T02:41:26.810Z,33.03
2023-02-14T02:45:19.376Z,32.99
2023-02-14T02:48:53.785Z,32.75
2023-02-14T02:52:36.412Z,32.62
2023-02-14T02:56:26.732Z,32.45
2023-02-14T02:59:41.714Z,32.32
2023-02-14T03:03:16.567Z,32.23
2023-02-14T03:11:06.131Z,32.37
2023-02-14T03:14:21.711Z,32.59
2023-02-14T03:17:51.433Z,31.89
2023-02-14T03:21:30.628Z,31.89
2023-02-14T03:24:49.221Z,31.79
2023-02-14T03:28:55.556Z,31.67
2023-02-14T03:32:03.688Z,31.46
2023-02-14T03:35:17.497Z,31.29
2023-02-14T03:39:01.969Z,31.35
2023-02-14T03:46:45.461Z,31.23
2023-02-14T03:49:53.160Z,31.06
2023-02-14T03:52:59.490Z,30.91
2023-02-14T03:56:54.455Z,31.10
2023-02-14T03:59:58.810Z,31.03
2023-02-14T04:03:22.722Z,31.31
2023-02-14T04:06:18.320Z,31.56
2023-02-14T04:09:22.363Z,31.64
2023-02-14T04:12:37.146Z,32.03
2023-02-14T04:15:38.808Z,32.36
2023-02-14T04:18:59.308Z,32.58
2023-02-14T04:22:02.065Z,32.83
2023-02-14T04:25:05.823Z,33.09
2023-02-14T04:28:06.758Z,33.19
2023-02-14T04:31:35.721Z,33.40
2023-02-14T04:34:39.097Z,33.44
2023-02-14T04:37:43.572Z,33.64
2023-02-14T04:40:46.927Z,33.75
2023-02-14T04:43:49.966Z,34.05
2023-02-14T04:46:54.810Z,34.06
2023-02-14T04:49:59.222Z,34.24
2023-02-14T04:53:01.806Z,34.31
2023-02-14T04:56:06.691Z,34.42
2023-02-14T04:59:09.865Z,34.56
2023-02-14T05:02:14.084Z,34.65
2023-02-14T05:05:18.362Z,34.77
2023-02-14T05:08:34.965Z,35.01
2023-02-14T05:11:31.102Z,34.98
2023-02-14T05:14:34.977Z,34.98
2023-02-14T05:17:38.836Z,35.09
2023-02-14T05:20:46.413Z,35.21
2023-02-14T05:23:50.105Z,35.29
2023-02-14T05:26:54.278Z,35.31
2023-02-14T05:29:59.837Z,35.44
2023-02-14T05:33:29.827Z,35.63
2023-02-14T05:36:33.668Z,35.44
2023-02-14T05:39:37.979Z,35.38
2023-02-14T05:42:41.846Z,35.26
2023-02-14T05:45:46.831Z,36.21
2023-02-14T05:49:17.804Z,35.96
2023-02-14T05:52:21.787Z,35.67
2023-02-14T05:55:24.742Z,35.75
2023-02-14T05:58:29.652Z,35.47
2023-02-14T06:01:30.443Z,35.54
2023-02-14T06:04:33.029Z,35.52
2023-02-14T06:48:15.702Z,35.14
2023-02-14T07:02:56.007Z,35.63
2023-02-14T07:07:38.986Z,35.55
2023-02-14T07:11:03.019Z,35.23
2023-02-14T07:14:46.926Z,34.98
2023-02-14T07:21:31.887Z,34.66
2023-02-14T07:24:36.128Z,34.47
2023-02-14T07:27:42.468Z,34.36
2023-02-14T07:30:51.680Z,34.42
2023-02-14T07:37:39.780Z,34.28
2023-02-14T07:40:43.769Z,34.17
2023-02-14T07:43:51.351Z,34.02
2023-02-14T07:47:30.802Z,34.29
2023-02-14T07:50:43.758Z,34.26
2023-02-14T07:53:51.409Z,34.10
2023-02-14T07:57:03.195Z,34.06
2023-02-14T08:00:09.436Z,33.90
2023-02-14T08:03:31.000Z,33.86
2023-02-14T08:06:42.210Z,33.74
2023-02-14T08:10:03.524Z,33.67
2023-02-14T08:13:11.163Z,33.47
2023-02-14T08:16:25.726Z,33.47
2023-02-14T08:19:33.996Z,33.34
2023-02-14T08:22:39.937Z,33.14
2023-02-14T08:26:03.943Z,33.01
2023-02-14T08:29:03.116Z,32.41
2023-02-14T08:32:11.409Z,31.65
2023-02-14T08:35:19.300Z,31.53
2023-02-14T08:38:24.030Z,31.48
2023-02-14T08:41:31.153Z,31.41
2023-02-14T08:44:39.500Z,31.74
2023-02-14T08:48:11.084Z,31.83
2023-02-14T08:51:23.774Z,31.88
2023-02-14T08:54:43.780Z,31.96
2023-02-14T08:57:47.249Z,31.93
2023-02-14T09:00:51.145Z,31.79
2023-02-14T09:03:55.808Z,31.73
2023-02-14T09:07:00.330Z,31.32
2023-02-14T09:10:03.267Z,31.04
2023-02-14T09:13:08.115Z,30.78
2023-02-14T09:16:30.782Z,30.76
2023-02-14T09:19:35.069Z,30.57
2023-02-14T09:22:32.036Z,30.49
2023-02-14T09:25:31.879Z,30.78
2023-02-14T09:28:41.859Z,31.58
2023-02-14T09:31:48.196Z,31.54
2023-02-14T09:35:01.822Z,32.41
2023-02-14T09:38:09.399Z,31.70
2023-02-14T09:41:55.600Z,31.60
2023-02-14T09:45:04.109Z,31.32
2023-02-14T09:48:35.413Z,31.25
2023-02-14T09:51:45.961Z,31.09
2023-02-14T09:54:51.338Z,30.94
2023-02-14T09:58:15.440Z,30.90
2023-02-14T10:02:02.284Z,30.99
2023-02-14T10:05:29.675Z,31.06
2023-02-14T10:08:55.884Z,31.01
2023-02-14T10:11:56.029Z,30.38
2023-02-14T10:15:31.554Z,29.96
2023-02-14T10:18:47.116Z,30.19
2023-02-14T10:22:02.927Z,29.57
2023-02-14T10:25:15.865Z,29.42
2023-02-14T10:28:20.032Z,29.26
2023-02-14T10:31:47.919Z,29.18
2023-02-14T10:35:34.569Z,29.25
2023-02-14T10:39:02.173Z,29.22
2023-02-14T10:42:31.378Z,29.24
2023-02-14T10:46:11.447Z,29.10
2023-02-14T10:49:43.927Z,28.98
2023-02-14T10:53:33.390Z,28.81
2023-02-14T11:00:51.115Z,28.66
2023-02-14T11:04:19.163Z,28.66
2023-02-14T11:07:39.544Z,28.59
2023-02-14T11:10:51.728Z,28.47
2023-02-14T11:14:01.038Z,28.93
2023-02-14T11:17:54.709Z,28.66
2023-02-14T11:20:51.539Z,28.40
2023-02-14T11:24:03.803Z,28.29
2023-02-14T11:27:19.293Z,28.41
2023-02-14T11:31:06.598Z,28.43
2023-02-14T11:34:11.506Z,28.26
2023-02-14T11:37:16.432Z,28.15
2023-02-14T11:41:02.775Z,28.22
2023-02-14T11:44:31.781Z,28.31
2023-02-14T11:47:48.205Z,28.16
2023-02-14T11:50:51.679Z,28.00
2023-02-14T11:54:19.955Z,27.97
2023-02-14T11:57:59.798Z,28.14
2023-02-14T12:02:02.029Z,28.18
2023-02-14T12:05:11.308Z,28.09
2023-02-14T12:08:23.205Z,27.99
2023-02-14T12:11:39.934Z,28.04
2023-02-14T12:14:51.259Z,28.02
2023-02-14T12:18:03.823Z,27.97
2023-02-14T12:21:44.008Z,28.96
2023-02-14T12:25:47.465Z,28.23
2023-02-14T12:29:03.513Z,28.17
2023-02-14T12:32:11.850Z,28.07
2023-02-14T12:35:19.074Z,28.01
2023-02-14T12:38:33.234Z,28.00
2023-02-14T12:42:11.763Z,28.19
2023-02-14T12:46:11.483Z,28.32
2023-02-14T12:49:55.186Z,28.41
2023-02-14T12:53:39.806Z,28.43
2023-02-14T12:57:19.191Z,28.46
2023-02-14T13:00:39.655Z,28.50
2023-02-14T13:04:15.690Z,29.26
2023-02-14T13:07:51.302Z,28.71
2023-02-14T13:11:03.242Z,28.69
2023-02-14T13:14:43.724Z,28.81
2023-02-14T13:18:03.564Z,29.04
2023-02-14T13:21:39.139Z,29.56
2023-02-14T13:24:59.573Z,29.63
2023-02-14T13:28:03.675Z,29.54
2023-02-14T13:31:16.072Z,30.57
2023-02-14T13:34:39.147Z,30.06
2023-02-14T13:38:07.255Z,30.14
2023-02-14T13:41:16.194Z,30.47
2023-02-14T13:45:02.378Z,30.99
2023-02-14T13:48:33.040Z,31.38
2023-02-14T13:52:04.294Z,31.76
2023-02-14T13:55:40.631Z,32.03
2023-02-14T13:59:19.811Z,33.21
2023-02-14T14:03:04.297Z,32.93
2023-02-14T14:06:31.310Z,33.16
2023-02-14T14:10:01.963Z,33.43
2023-02-14T14:13:09.633Z,33.66
2023-02-14T14:16:42.590Z,34.19
2023-02-14T14:20:02.969Z,34.46
2023-02-14T14:23:15.564Z,34.62
2023-02-14T14:26:47.304Z,34.99
2023-02-14T14:29:59.556Z,35.15
2023-02-14T14:33:03.413Z,35.22
2023-02-14T14:36:23.680Z,35.42
2023-02-14T14:39:30.905Z,35.51
2023-02-14T14:42:43.584Z,35.56
2023-02-14T14:45:51.106Z,35.77
2023-02-14T14:49:14.293Z,35.92
2023-02-14T14:52:23.806Z,36.82
2023-02-14T14:55:39.553Z,36.46
2023-02-14T14:58:47.826Z,36.50
2023-02-14T15:02:50.882Z,36.69
2023-02-14T15:06:35.734Z,36.99
2023-02-14T15:09:48.104Z,37.05
2023-02-14T15:13:12.218Z,37.08
2023-02-14T15:16:22.515Z,37.15
2023-02-14T15:19:51.828Z,37.24
2023-02-14T15:23:03.944Z,37.25
2023-02-14T15:26:08.685Z,37.27
2023-02-14T15:29:39.328Z,37.68
2023-02-14T15:32:51.886Z,37.91
2023-02-14T15:36:38.922Z,38.05
2023-02-14T15:40:11.786Z,38.23
2023-02-14T15:43:39.887Z,38.90
2023-02-14T15:46:47.577Z,39.18
2023-02-14T15:49:49.978Z,39.51
2023-02-14T15:53:02.648Z,39.97
2023-02-14T15:56:10.596Z,40.21
2023-02-14T15:59:39.269Z,40.38
2023-02-14T16:02:57.473Z,40.72
2023-02-14T16:06:35.841Z,40.85
2023-02-14T16:09:43.575Z,42.31
2023-02-14T16:12:51.539Z,41.86
2023-02-14T16:16:11.635Z,41.59
2023-02-14T16:19:53.635Z,41.67
2023-02-14T16:23:03.330Z,41.42
2023-02-14T16:26:15.844Z,41.56
2023-02-14T16:29:23.428Z,41.42
2023-02-14T16:32:43.286Z,41.27
2023-02-14T16:35:51.639Z,40.93
2023-02-14T16:39:02.183Z,40.52
2023-02-14T16:42:11.640Z,40.36
2023-02-14T16:45:19.133Z,40.02
2023-02-14T16:52:34.471Z,40.48
2023-02-14T16:55:40.452Z,40.64
2023-02-14T16:58:54.010Z,40.58
2023-02-14T17:02:03.028Z,40.18
2023-02-14T17:05:07.463Z,39.87
2023-02-14T17:08:14.967Z,39.72
2023-02-14T17:11:31.579Z,39.64
2023-02-14T17:14:56.771Z,39.74
2023-02-14T17:18:03.116Z,39.65
2023-02-14T17:21:11.533Z,39.69
2023-02-14T17:24:21.158Z,39.68
2023-02-14T17:27:31.233Z,39.73
2023-02-14T17:31:04.398Z,39.94
2023-02-14T17:34:11.625Z,39.80
2023-02-14T17:37:15.520Z,39.75
2023-02-14T17:40:23.445Z,39.68
2023-02-14T17:43:34.141Z,40.20
2023-02-14T17:46:55.911Z,39.93
2023-02-14T17:50:19.767Z,40.51
2023-02-14T17:53:33.968Z,40.39
2023-02-14T17:56:44.099Z,40.42
2023-02-14T18:00:00.208Z,40.38
2023-02-14T18:03:12.126Z,40.36
2023-02-14T18:06:19.390Z,40.06
2023-02-14T18:09:31.355Z,39.97
2023-02-14T18:12:35.234Z,40.19
2023-02-14T18:15:40.689Z,40.26
2023-02-14T18:19:06.269Z,40.46
2023-02-14T18:22:03.949Z,40.43
2023-02-14T18:25:32.368Z,40.66
2023-02-14T18:28:43.708Z,40.68
2023-02-14T18:31:56.832Z,40.90
2023-02-14T18:35:04.477Z,40.67
2023-02-14T18:38:08.568Z,40.82
2023-02-14T18:41:19.649Z,40.80
2023-02-14T18:44:32.158Z,40.47
2023-02-14T18:47:44.478Z,40.51
2023-02-14T18:50:52.813Z,40.64
2023-02-14T18:54:02.320Z,40.72
2023-02-14T18:57:34.158Z,41.01
2023-02-14T19:00:44.445Z,40.86
2023-02-14T19:03:50.131Z,40.82
2023-02-14T19:07:02.300Z,40.88
2023-02-14T19:10:35.283Z,40.96
2023-02-14T19:13:43.919Z,41.03
2023-02-14T19:21:20.871Z,41.32
2023-02-14T19:24:25.847Z,41.00
2023-02-14T19:34:54.131Z,41.09
2023-02-14T19:41:35.416Z,41.16
2023-02-14T19:44:46.721Z,41.06
2023-02-14T19:47:51.946Z,41.06
2023-02-14T19:51:03.657Z,41.07
2023-02-14T19:54:08.188Z,41.05
2023-02-14T19:57:11.694Z,41.09
2023-02-14T20:00:20.262Z,41.13
2023-02-14T20:03:34.534Z,41.07
2023-02-14T20:06:40.413Z,41.93
2023-02-14T20:10:19.705Z,41.70
2023-02-14T20:13:32.645Z,41.31
2023-02-14T20:17:08.207Z,41.46
2023-02-14T20:20:11.887Z,41.06
2023-02-14T20:23:20.156Z,40.99
2023-02-14T20:26:32.928Z,40.99
2023-02-14T20:29:44.701Z,41.08
2023-02-14T20:32:51.285Z,41.12
2023-02-14T20:36:23.563Z,41.43
2023-02-14T20:39:29.956Z,41.24
2023-02-14T20:42:37.642Z,41.24
2023-02-14T20:46:15.308Z,41.50
2023-02-14T20:49:19.549Z,41.46
2023-02-14T20:52:28.599Z,41.25
2023-02-14T20:55:48.610Z,41.36
2023-02-14T20:58:50.678Z,42.05
2023-02-14T21:01:50.275Z,41.43
2023-02-14T21:04:48.184Z,41.34
2023-02-14T21:07:52.492Z,41.31
2023-02-14T21:11:02.559Z,41.28
2023-02-14T21:14:15.523Z,41.34
2023-02-14T21:17:20.026Z,41.21
2023-02-14T21:20:31.983Z,41.20
2023-02-14T21:23:35.390Z,41.11
2023-02-14T21:26:40.095Z,41.39
2023-02-14T21:29:43.345Z,41.15
2023-02-14T21:32:47.756Z,41.33
2023-02-14T21:36:59.274Z,41.78
2023-02-14T21:45:00.855Z,41.88
2023-02-14T21:48:19.502Z,41.39
2023-02-14T21:51:23.498Z,41.18
2023-02-14T21:54:34.370Z,41.17
2023-02-14T21:57:40.030Z,41.06
2023-02-14T22:00:47.429Z,41.60
2023-02-14T22:03:55.528Z,41.02
2023-02-14T22:07:02.071Z,41.67
2023-02-14T22:10:12.363Z,41.13
2023-02-14T22:13:19.912Z,41.84
2023-02-14T22:23:25.986Z,40.80
2023-02-14T22:26:46.505Z,40.65
2023-02-14T22:29:51.517Z,40.53
2023-02-14T22:33:02.586Z,40.36
2023-02-14T22:36:22.739Z,40.36
2023-02-14T22:39:23.725Z,40.24
2023-02-14T22:42:32.544Z,40.19
2023-02-14T22:45:37.986Z,40.14
2023-02-14T22:48:43.509Z,40.10
2023-02-14T22:51:55.997Z,40.12
2023-02-14T22:55:02.434Z,40.02
2023-02-14T22:58:08.035Z,40.05
2023-02-14T23:01:52.298Z,40.28
2023-02-14T23:04:55.676Z,39.93
2023-02-14T23:08:03.805Z,39.74
2023-02-14T23:11:19.899Z,39.72
2023-02-14T23:14:46.621Z,39.74
2023-02-14T23:18:10.839Z,39.67
2023-02-14T23:21:55.332Z,39.96
2023-02-14T23:25:02.688Z,40.63
2023-02-14T23:28:12.192Z,39.72
2023-02-14T23:31:19.401Z,40.39
2023-02-14T23:34:34.307Z,39.57
2023-02-14T23:37:46.215Z,39.32
2023-02-14T23:41:13.817Z,39.13
2023-02-14T23:44:31.711Z,39.31
2023-02-14T23:47:36.427Z,38.98
2023-02-14T23:51:15.470Z,39.38
2023-02-14T23:54:52.277Z,39.07
2023-02-14T23:57:55.818Z,38.70
